Time;durP1;ratioP1;P1;durP2;ratioP2;P2;SDS_P1;SDS_P2;PMS_P1;PMS_P2;Temp;Humidity;BMP_temperature;BMP_pressure;BME280_temperature;BME280_humidity;BME280_pressure;Samples;Min_cycle;Max_cycle;Signal;HPM_P1;HPM_P2
2023/07/14 09:06:35;;;;;;;10.93;3.03;;;19.80;76.00;;;;;;5068947;27;20387;-86
2023/07/14 09:09:05;;;;;;;11.85;2.85;;;20.10;71.60;;;;;;5074826;28;20027;-84
2023/07/14 09:11:41;;;;;;;8.60;2.58;;;20.10;71.50;;;;;;5088279;28;20036;-86
2023/07/14 09:14:47;;;;;;;8.38;3.28;;;20.20;71.40;;;;;;5090285;28;20062;-87
2023/07/14 09:17:46;;;;;;;8.25;2.50;;;20.40;71.00;;;;;;5090757;28;20039;-86
2023/07/14 09:20:39;;;;;;;10.18;2.55;;;20.40;70.50;;;;;;5088668;28;20024;-89
2023/07/14 09:23:46;;;;;;;5.32;2.40;;;20.50;70.20;;;;;;5090553;28;20021;-86
2023/07/14 09:26:29;;;;;;;27.20;7.10;;;20.60;70.00;;;;;;5087694;28;20123;-87
2023/07/14 09:29:20;;;;;;;20.90;5.55;;;20.60;69.60;;;;;;5065656;28;20020;-88
2023/07/14 09:35:15;;;;;;;20.08;4.05;;;20.70;69.00;;;;;;5073445;28;20043;-83
2023/07/14 09:38:07;;;;;;;15.65;3.50;;;20.80;66.70;;;;;;5072514;28;20036;-85
2023/07/14 09:40:50;;;;;;;11.85;3.42;;;20.70;65.70;;;;;;5069241;28;20054;-85
2023/07/14 09:43:15;;;;;;;11.55;3.65;;;20.70;65.40;;;;;;5068361;28;20025;-84
2023/07/14 09:45:42;;;;;;;7.40;2.88;;;20.70;65.20;;;;;;5066032;28;20558;-83
2023/07/14 09:48:33;;;;;;;9.52;3.00;;;20.70;65.10;;;;;;5070177;28;20020;-83
2023/07/14 09:51:09;;;;;;;9.15;2.75;;;20.70;64.80;;;;;;5073197;28;20379;-85
2023/07/14 10:36:51;;;;;;;;;;;;;;;;;;;;;
2023/07/14 11:09:10;;;;;;;;;;;;;;;;;;;;;
2023/07/14 11:12:28;;;;;;;3.67;1.95;;;20.10;62.40;;;;;;4894688;29;20048;-93
2023/07/14 11:18:08;;;;;;;4.15;2.50;;;20.10;62.30;;;;;;4930285;28;19997;-84
2023/07/14 11:20:44;;;;;;;4.25;2.38;;;20.20;62.10;;;;;;4949840;28;20061;-84
2023/07/14 11:23:28;;;;;;;3.58;2.20;;;20.20;62.00;;;;;;5001635;28;20084;-84
2023/07/14 11:29:26;;;;;;;4.60;2.40;;;20.20;61.70;;;;;;5050756;28;20059;-84
2023/07/14 11:32:08;;;;;;;4.07;1.98;;;20.20;61.60;;;;;;5044300;28;20038;-84
2023/07/14 11:34:43;;;;;;;3.80;2.22;;;20.20;61.60;;;;;;5052306;28;20401;-82
2023/07/14 11:37:38;;;;;;;4.88;2.10;;;20.20;61.60;;;;;;5045625;28;20040;-84
2023/07/14 11:40:20;;;;;;;6.10;2.28;;;20.20;61.60;;;;;;5041530;28;20029;-84
2023/07/14 11:42:54;;;;;;;3.80;2.30;;;20.20;61.60;;;;;;5052383;28;20028;-84
2023/07/14 11:45:22;;;;;;;3.60;2.00;;;20.20;61.60;;;;;;5050771;28;20099;-84
2023/07/14 11:47:49;;;;;;;6.10;2.23;;;20.20;61.60;;;;;;5055366;28;20456;-83
2023/07/14 11:51:12;;;;;;;5.15;2.20;;;20.20;61.50;;;;;;5047998;28;20393;-81
2023/07/14 11:54:36;;;;;;;3.30;2.00;;;20.20;61.60;;;;;;4965600;28;20031;-83
2023/07/14 11:57:06;;;;;;;3.22;2.15;;;20.20;61.60;;;;;;4981115;28;20030;-83
2023/07/14 11:59:36;;;;;;;4.05;2.20;;;20.20;61.50;;;;;;4985372;28;20053;-83
2023/07/14 12:02:30;;;;;;;4.68;2.03;;;20.20;61.50;;;;;;4991309;28;20086;-84
2023/07/14 12:05:14;;;;;;;4.38;2.22;;;20.20;61.50;;;;;;4991388;28;20552;-84
2023/07/14 12:08:07;;;;;;;3.38;1.83;;;20.20;61.40;;;;;;5009055;28;20041;-83
2023/07/14 12:10:38;;;;;;;4.35;2.10;;;20.20;61.40;;;;;;5051919;28;20029;-84
2023/07/14 12:13:20;;;;;;;2.80;1.92;;;20.10;61.40;;;;;;5033593;28;20024;-83
2023/07/14 12:16:17;;;;;;;5.47;2.33;;;20.10;61.50;;;;;;5049305;28;20017;-83
2023/07/14 12:19:04;;;;;;;3.45;2.17;;;20.10;61.40;;;;;;5044187;28;20484;-83
2023/07/14 12:21:52;;;;;;;3.75;2.05;;;20.10;61.50;;;;;;5056921;28;20032;-85
2023/07/14 12:24:56;;;;;;;3.63;2.50;;;20.10;61.50;;;;;;5072043;28;20073;-87
2023/07/14 12:27:38;;;;;;;4.38;2.35;;;20.00;61.50;;;;;;5061877;28;20040;-81
2023/07/14 12:30:19;;;;;;;7.05;2.30;;;20.00;62.80;;;;;;5023469;28;20084;-84
2023/07/14 12:32:45;;;;;;;4.40;2.30;;;20.00;63.40;;;;;;5013920;28;20027;-81
2023/07/14 12:35:19;;;;;;;11.40;2.58;;;20.00;65.00;;;;;;5010829;28;20126;-81
2023/07/14 12:37:46;;;;;;;5.78;2.85;;;20.10;66.00;;;;;;5012718;28;20780;-90
2023/07/14 12:40:24;;;;;;;4.47;2.50;;;20.30;66.70;;;;;;4996747;28;20043;-82
